Ellsworth, KS

2:37 PM CST on December 18, 2014 (GMT -0600)
Salina Municipal | Change Station
CLOSE
Current Station
Airport
Location: Salina,
Elevation: 1286 ft
Nearby Weather Stations

Elev 1286 ft 38.80 °N, 97.65 °W | Updated 37 minutes ago

Overcast
Overcast
32 °F
Feels Like 29 °F
N
4
Wind Variable Wind from NW

Today
High -- | Low -- °F
--% Chance of Precip.
Yesterday
High -- | Low -- °F
Precip. -- in
7:45 AM 5:13 PM
Waning Crescent, 12% visible
Pressure 30.18 in
Visibility 6.0 miles
Clouds Overcast 1200 ft
Windchill 29 °F
Dew Point 27 °F
Humidity 82%
Rainfall 0.00 in
Snow Depth Not available.
UV 1 out of 12
Pollen .10 out of 12
Air Quality Not available.
Flu Activity Not available.
SPECI KSLN 182000Z 31003KT 6SM HZ OVC012 00/M03 A3018 RMK AO2 T00001028

More Conditions Fewer Conditions

Pressure 30.18 in
Visibility 6.0 miles
Clouds Overcast 1200 ft
Windchill 29 °F
Dew Point 27 °F
Humidity 82%
Rainfall 0.00 in
Snow Depth Not available.
UV 1 out of 12
Pollen .10 out of 12
Air Quality Not available.
Flu Activity Not available.
SPECI KSLN 182000Z 31003KT 6SM HZ OVC012 00/M03 A3018 RMK AO2 T00001028

More Conditions Fewer Conditions

10-Day Weather Forecast

Almanac

Astronomy

Dec. 18, 2014 Rise Set
Actual Time
Civil Twilight
Nautical Twilight
Astronomical Twilight
Moon
Length of Visible Light
Length of Day
Tomorrow will be .
, % of the Moon is Illuminated

Today's Extremes

State Highs State Lows

Community

WunderPhotos

Upload Photos

1,778,993 photos uploaded!

WunderBlogs® & News

Nearby

Air Quality

  Air Quality AQ Index Pollutant
Not available.

Snow Depth

Station Depth Elevation

Earthquake Activity

City Distance Mag. Time & Date
Minimum magnitude displayed is 2.5.

Coastal Water Temperatures

Place Temperature

Nearby Weather Stations